Clover Valley, Nevada Weather observations

Data are for 10 minute period ending at time listed.
 Day   Time   Solar   Ave.   Ave.  Ave.  Vector  Max.   Baro.   Total    
  of    of     Rad.   Air    Rel.  Wind   Wind   Wind  Press.  Precip.   
Year   Day            Temp.  Hum.  Speed  Dir.   Gust                    
2014   (PST)  Kw/m2    F      %     mph   deg.    mph    mb.     in.     
-------------------------------------------------------------------------
 107   14:20   0.74   69.2    19    8.2   215    15.9   821.7    0.00 
 107   14:30   0.72   70.3    18   12.3   193    22.4   821.4    0.00 
 107   14:40   0.66   70.6    18    7.3   222    16.9   821.3    0.00 
 107   14:50   0.66   71.2    18   11.1   204    18.8   821.1    0.00 
 107   15:00   0.63   71.2    17   12.5   195    22.7   821.0    0.00 
 107   15:10   0.60   71.0    17   10.9   236    18.6   820.9    0.00 
 107   15:20   0.57   70.9    18   11.9   233    17.8   820.8    0.00 
 107   15:30   0.53   70.8    18    7.1   241    13.4   820.7    0.00 
 107   15:40   0.52   71.6    17    8.3   244    17.8   820.5    0.00 
 107   15:50   0.47   71.5    17   10.8   232    18.8   820.3    0.00 
 107   16:00   0.41   70.9    17   11.8   238    19.5   820.2    0.00 
 107   16:10   0.37   71.2    17   11.1   242    19.6   820.1    0.00 
 107   16:20   0.20   70.5    17   10.2   247    16.2   820.1    0.00 
 107   16:30   0.13   69.5    18   11.2   251    16.9   820.0    0.00 
 107   16:40   0.17   69.2    18    7.0   250    10.4   819.9    0.00 
 107   16:50   0.34   70.6    18    7.3   251    10.7   819.8    0.00 
 107   17:00   0.29   71.2    17    6.5   227     9.1   819.6    0.00 
 107   17:10   0.21   70.6    18    5.4   228     9.1   819.6    0.00 
 107   17:20   0.14   70.4    18    4.4   223     6.1   819.5    0.00 
 107   17:30   0.12   70.0    18    5.4   215     9.4   819.3    0.00 
 107   17:40   0.07   69.3    18    7.7   220    11.9   819.3    0.00 
 107   17:50   0.04   68.4    19    7.8   217    11.9   819.4    0.00 
 107   18:00   0.02   68.0    20   12.6   215    19.4   819.4    0.00 
 107   18:10   0.01   67.0    21   10.4   225    15.3   819.4    0.00 
 107   18:20   0.00   66.2    22    8.5   214    12.1   819.4    0.00 
 107   18:30   0.00   65.9    22    9.3   217    14.9   819.3    0.00 
 107   18:40   0.00   65.4    23   10.3   221    14.4   819.3    0.00 
 107   18:50   0.00   64.0    25    8.2   208    11.2   819.4    0.00 
 107   19:00   0.00   62.9    26    7.3   202     9.3   819.6    0.00 
 107   19:10   0.00   64.1    24   15.7   208    30.9   819.6    0.00 
 107   19:20   0.00   66.3    22   21.5   208    28.1   819.6    0.00 
 107   19:30   0.00   65.5    23   11.1   212    16.8   819.8    0.00 
 107   19:40   0.00   64.8    24    8.4   206    14.0   819.8    0.00 
 107   19:50   0.00   64.1    24    7.7   199    13.9   819.7    0.00 
 107   20:00   0.00   65.1    22   10.7   235    19.0   819.5    0.00 
 107   20:10   0.00   63.4    24    7.9   225    11.3   819.7    0.00 
 107   20:20   0.00   61.7    26    4.2   200     6.4   819.7    0.00 
 107   20:30   0.00   60.9    27    4.3   210     7.7   819.7    0.00 
 107   20:40   0.00   60.6    28    4.8   199     7.3   819.7    0.00 
 107   20:50   0.00   58.6    30    4.2   162     7.5   819.7    0.00 
 107   21:00   0.00   58.9    30    4.9   153     7.7   819.6    0.00 
 107   21:10   0.00   57.5    31    5.3   156     8.0   819.6    0.00 
 107   21:20   0.00   58.7    30    7.6   176    14.5   819.6    0.00 
 107   21:30   0.00   62.0    28   16.1   252    33.1   819.7    0.00 
 107   21:40   0.00   62.0    29    8.1   265    14.8   819.6    0.00 
 107   21:50   0.00   60.2    30    4.7   230     7.1   819.5    0.00 
 107   22:00   0.00   57.3    33    3.8   189     6.0   819.6    0.00 
 107   22:10   0.00   56.6    34    6.0   173     8.1   819.6    0.00 
 107   22:20   0.00   57.6    32    6.1   180     9.2   819.6    0.00 
 107   22:30   0.00   56.9    33    6.7   180    10.8   819.7    0.00 
 107   22:40   0.00   55.5    34    7.4   177    11.9   819.8    0.00 
 107   22:50   0.00   55.5    33    4.4   209     7.5   819.9    0.00 
 107   23:00   0.00   54.8    33    7.9   163    11.3   819.9    0.00 
 107   23:10   0.00   54.7    33    7.4   174    11.5   819.9    0.00 
 107   23:20   0.00   57.4    31    4.3   220     8.9   820.2    0.00 
 107   23:30   0.00   57.9    31    4.7   320     8.2   820.4    0.00 
 107   23:40   0.00   57.0    35    6.7   341    13.1   820.6    0.00 
 107   23:50   0.00   57.2    35    8.3    13    12.7   820.6    0.00 
 108    0:00   0.00   57.9    34    7.2   357    11.5   820.5    0.00 
 108    0:10   0.00   58.9    32    5.6   301    17.6   820.4    0.00 
 108    0:20   0.00   59.5    32    3.7   123    11.0   820.6    0.00 
 108    0:30   0.00   56.8    37    4.5   352    14.8   820.8    0.00 
 108    0:40   0.00   56.6    40    7.0    10    17.6   820.8    0.00 
 108    0:50   0.00   55.5    44   12.0    11    19.7   820.9    0.00 
 108    1:00   0.00   55.7    42    7.0   303    12.3   821.1    0.00 
 108    1:10   0.00   55.7    42    4.2   293     8.2   821.2    0.00 
 108    1:20   0.00   56.4    43    7.4   280    17.0   821.2    0.00 
 108    1:30   0.00   57.2    43    6.2   249    18.9   821.2    0.00 
 108    1:40   0.00   57.1    43    7.5   346    17.8   821.1    0.00 
 108    1:50   0.00   53.9    50    7.9    42    11.2   821.1    0.00 
 108    2:00   0.00   52.8    53    6.6    55    10.3   821.0    0.00 
 108    2:10   0.00   52.0    55    7.1    80     9.8   821.0    0.00 
 108    2:20   0.00   52.6    54    5.9    73     8.9   821.0    0.00 
 108    2:30   0.00   53.2    53    4.5    84     7.5   821.2    0.00 
 108    2:40   0.00   54.2    51    8.4    61    11.9   821.2    0.00 
 108    2:50   0.00   54.0    52    6.8    60     9.9   821.2    0.00 
 108    3:00   0.00   54.0    52    9.0    58    14.8   821.2    0.00 
 108    3:10   0.00   55.3    49    5.9    25    15.6   821.3    0.00 
 108    3:20   0.00   53.9    52    5.6    91    10.7   821.3    0.00 
 108    3:30   0.00   55.9    47    7.5   151    18.8   821.3    0.00 
 108    3:40   0.00   55.3    49    6.0   222    11.2   821.4    0.00 
 108    3:50   0.00   54.0    53    4.0   233     8.1   821.5    0.00 
 108    4:00   0.00   54.3    52    3.0   197     7.4   821.5    0.00 
 108    4:10   0.00   54.5    53    7.8   271    16.3   821.6    0.00 
 108    4:20   0.00   53.6    57   12.1   272    18.1   821.5    0.00 
 108    4:30   0.00   53.4    57    8.8   277    14.2   821.6    0.00 
 108    4:40   0.00   53.2    59   10.6   278    17.7   821.8    0.00 
 108    4:50   0.00   52.1    63   13.5   310    22.8   822.0    0.00 
 108    5:00   0.00   50.7    69    6.0    25    15.8   822.2    0.00 
 108    5:10   0.00   49.7    74    7.2    39    11.3   822.2    0.00 
 108    5:20   0.00   49.3    76    6.1   102    13.4   822.0    0.00 
 108    5:30   0.01   50.6    69    8.3    47    14.1   822.2    0.00 
 108    5:40   0.01   49.1    75   13.3    31    21.1   822.3    0.00 
 108    5:50   0.03   47.7    80   14.3    28    20.4   822.3    0.00 
 108    6:00   0.04   47.2    82   14.7    17    20.8   822.5    0.00 
 108    6:10   0.05   47.2    80   14.9     9    20.2   822.7    0.00 
 108    6:20   0.10   47.2    79   13.6     7    20.5   822.9    0.00 
 108    6:30   0.13   47.3    78   15.0    13    21.0   822.9    0.00 
 108    6:40   0.13   47.1    77   12.8    11    22.9   823.1    0.00 
 108    6:50   0.11   47.0    76   15.3     1    27.5   823.2    0.00 
 108    7:00   0.10   46.7    77   15.5     6    22.7   823.4    0.00 
 108    7:10   0.10   46.1    81   15.8    11    25.3   823.5    0.00 
 108    7:20   0.08   45.6    82   14.2    14    25.4   823.8    0.00 
 108    7:30   0.10   45.2    80   18.1    14    25.1   823.7    0.00 
 108    7:40   0.10   44.7    78   20.5    17    35.2   823.6    0.00 
 108    7:50   0.10   44.5    76   19.0     7    24.8   824.0    0.00 
 108    8:00   0.10   44.3    76   19.4    12    25.4   824.2    0.00 
 108    8:10   0.13   44.3    77   18.6    13    24.2   824.2    0.00 
 108    8:20   0.13   44.5    76   18.4    12    24.5   824.4    0.00 
 108    8:30   0.11   44.5    76   18.0    12    25.6   824.5    0.00 
 108    8:40   0.14   44.6    75   16.9    11    23.9   824.7    0.00 
 108    8:50   0.16   45.0    72   16.1     9    20.8   824.9    0.00 
 108    9:00   0.18   45.4    70   15.5    12    20.5   825.0    0.00 
 108    9:10   0.19   45.8    69   15.0    13    22.9   825.0    0.00 
 108    9:20   0.21   46.3    67   13.0    21    16.8   825.1    0.00 
 108    9:30   0.26   46.9    62   12.3    25    15.9   825.0    0.00 
 108    9:40   0.27   47.6    61   10.4    32    13.6   825.1    0.00 
 108    9:50   0.42   48.6    60    9.5    39    12.3   825.0    0.00 
 108   10:00   0.51   49.8    58    5.9    48    10.2   825.1    0.00 
 108   10:10   0.69   50.9    56    4.4    53     7.4   825.2    0.00 
 108   10:20   0.75   52.3    53    3.0    29    10.8   825.2    0.00 
 108   10:30   0.80   53.4    52    4.0    70     7.3   825.3    0.00 
 108   10:40   0.92   54.3    50    6.8    35    13.4   825.1    0.00 
 108   10:50   0.98   55.2    49    5.0    86    10.7   825.1    0.00 
 108   11:00   0.85   55.9    47    5.7     4     9.9   825.0    0.00 
 108   11:10   0.85   55.9    47    4.3    60     8.9   825.0    0.00 
 108   11:20   0.62   56.6    46    2.2   223     8.6   824.9    0.00 
 108   11:30   0.59   56.1    49    5.1    55    10.3   824.8    0.00 
 108   11:40   0.40   56.1    48    3.0   124     7.1   824.8    0.00 
 108   11:50   0.36   56.0    47    4.4    77    11.7   824.7    0.00 
 108   12:00   0.46   56.7    46    2.0     5     5.5   824.6    0.00 
 108   12:10   0.56   57.4    45    5.0   164    15.7   824.6    0.00 
 108   12:20   0.67   57.8    45    4.8   215     9.7   824.6    0.00 
 108   12:30   0.70   59.3    39    8.9   228    16.8   824.5    0.00 
 108   12:40   0.74   60.0    36    9.4   264    17.9   824.5    0.00 
 108   12:50   0.72   60.4    35    9.1   282    18.9   824.4    0.00 
 108   13:00   0.75   61.0    36    7.9   207    19.3   824.3    0.00 
 108   13:10   0.85   62.0    34    4.4   256    11.3   824.2    0.00 
 108   13:20   0.49   61.4    35    6.1   192    13.4   824.1    0.00 
 108   13:30   0.73   62.0    34    9.1   285    17.5   824.1    0.00 
 108   13:40   0.69   62.6    34    8.7   257    19.8   823.9    0.00 
 108   13:50   0.81   62.7    34    6.1   222    13.8   823.9    0.00 
 108   14:00   0.89   63.3    31    9.4   274    18.3   823.8    0.00 
 108   14:10   0.78   63.5    30   12.2   298    21.9   823.6    0.00 

Return to Clover Valley graphs page.


Western Regional Climate Center,wrcc@dri.edu